createdAt,value
2023-01-05T00:00:37.660Z,49.48
2023-01-05T00:01:37.761Z,49.18
2023-01-05T00:02:38.059Z,49.18
2023-01-05T00:03:37.626Z,49.18
2023-01-05T00:04:37.544Z,49.37
2023-01-05T00:05:37.710Z,49.37
2023-01-05T00:06:38.429Z,49.18
2023-01-05T00:07:37.627Z,49.18
2023-01-05T00:08:38.744Z,49.18
2023-01-05T00:09:38.273Z,49.18
2023-01-05T00:10:38.299Z,49.18
2023-01-05T00:11:38.426Z,49.18
2023-01-05T00:12:38.381Z,49.37
2023-01-05T00:13:37.613Z,49.07
2023-01-05T00:14:37.922Z,49.18
2023-01-05T00:15:37.596Z,49.07
2023-01-05T00:16:37.648Z,49.18
2023-01-05T00:17:37.595Z,49.18
2023-01-05T00:18:37.561Z,49.18
2023-01-05T00:19:38.288Z,49.07
2023-01-05T00:20:37.923Z,49.37
2023-01-05T00:21:37.258Z,49.07
2023-01-05T00:22:37.361Z,49.18
2023-01-05T00:23:37.361Z,48.97
2023-01-05T00:24:37.415Z,49.18
2023-01-05T00:25:37.299Z,48.97
2023-01-05T00:26:39.430Z,49.18
2023-01-05T00:27:37.355Z,49.37
2023-01-05T00:28:37.317Z,49.18
2023-01-05T00:29:37.495Z,48.97
2023-01-05T00:30:37.276Z,48.87
2023-01-05T00:31:37.230Z,48.97
2023-01-05T00:32:37.854Z,49.07
2023-01-05T00:33:37.401Z,49.27
2023-01-05T00:34:38.148Z,49.18
2023-01-05T00:35:37.346Z,49.18
2023-01-05T00:36:37.463Z,49.27
2023-01-05T00:37:37.209Z,49.18
2023-01-05T00:38:37.611Z,49.07
2023-01-05T00:39:37.105Z,48.87
2023-01-05T00:40:37.889Z,49.27
2023-01-05T00:41:36.979Z,49.18
2023-01-05T00:42:37.080Z,49.07
2023-01-05T00:43:37.825Z,48.87
2023-01-05T00:44:38.155Z,49.18
2023-01-05T00:45:37.320Z,49.48
2023-01-05T00:46:36.976Z,49.07
2023-01-05T00:47:37.219Z,49.07
2023-01-05T00:48:37.227Z,49.48
2023-01-05T00:49:37.744Z,49.07
2023-01-05T00:50:39.072Z,49.37
2023-01-05T00:51:37.028Z,49.07
2023-01-05T00:52:37.063Z,49.18
2023-01-05T00:53:37.165Z,49.18
2023-01-05T00:54:36.973Z,49.18
2023-01-05T00:55:37.258Z,49.07
2023-01-05T00:56:38.131Z,48.97
2023-01-05T00:57:37.098Z,49.27
2023-01-05T00:58:37.633Z,49.07
2023-01-05T00:59:36.857Z,49.48
2023-01-05T01:00:42.289Z,49.48
2023-01-05T01:01:38.448Z,49.37
2023-01-05T01:02:36.913Z,49.18
2023-01-05T01:03:36.898Z,49.48
2023-01-05T01:04:36.988Z,49.48
2023-01-05T01:05:37.172Z,49.18
2023-01-05T01:06:36.835Z,48.97
2023-01-05T01:07:38.003Z,49.37
2023-01-05T01:08:36.940Z,49.18
2023-01-05T01:09:37.024Z,49.27
2023-01-05T01:10:36.813Z,49.48
2023-01-05T01:11:37.768Z,48.87
2023-01-05T01:12:36.726Z,48.87
2023-01-05T01:13:37.123Z,48.87
2023-01-05T01:14:36.662Z,49.37
2023-01-05T01:15:36.686Z,49.07
2023-01-05T01:16:36.870Z,48.97
2023-01-05T01:17:36.684Z,49.27
2023-01-05T01:18:37.599Z,49.07
2023-01-05T01:19:37.119Z,49.48
2023-01-05T01:20:37.587Z,49.48
2023-01-05T01:21:36.649Z,49.27
2023-01-05T01:22:36.889Z,48.77
2023-01-05T01:23:36.653Z,48.77
2023-01-05T01:24:37.588Z,48.77
2023-01-05T01:25:37.586Z,48.97
2023-01-05T01:26:37.627Z,48.47
2023-01-05T01:27:36.682Z,48.47
2023-01-05T01:28:36.514Z,48.77
2023-01-05T01:29:37.378Z,48.27
2023-01-05T01:30:36.807Z,48.27
2023-01-05T01:31:36.951Z,48.57
2023-01-05T01:32:36.678Z,48.57
2023-01-05T01:33:36.470Z,48.77
2023-01-05T01:34:37.318Z,48.44
2023-01-05T01:35:37.427Z,48.47
2023-01-05T01:36:36.771Z,48.75
2023-01-05T01:37:38.572Z,48.47
2023-01-05T01:38:36.388Z,48.65
2023-01-05T01:39:36.486Z,48.55
2023-01-05T01:40:37.279Z,48.77
2023-01-05T01:41:36.524Z,48.25
2023-01-05T01:42:36.481Z,48.47
2023-01-05T01:43:36.975Z,48.44
2023-01-05T01:44:36.556Z,48.27
2023-01-05T01:45:36.582Z,48.25
2023-01-05T01:46:36.586Z,48.14
2023-01-05T01:47:36.261Z,47.86
2023-01-05T01:48:36.361Z,48.75
2023-01-05T01:49:36.634Z,48.85
2023-01-05T01:50:36.446Z,48.14
2023-01-05T01:51:36.424Z,47.74
2023-01-05T01:52:36.250Z,47.74
2023-01-05T01:53:36.428Z,47.74
2023-01-05T01:54:36.987Z,47.74
2023-01-05T01:55:36.733Z,47.74
2023-01-05T01:56:36.292Z,47.64
2023-01-05T01:57:36.255Z,47.85
2023-01-05T01:58:36.480Z,47.85
2023-01-05T01:59:36.536Z,48.25
2023-01-05T02:00:37.092Z,48.35
2023-01-05T02:01:36.811Z,48.25
2023-01-05T02:02:36.287Z,48.14
2023-01-05T02:03:37.186Z,48.14
2023-01-05T02:04:36.589Z,47.94
2023-01-05T02:05:36.148Z,48.14
2023-01-05T02:06:37.035Z,48.05
2023-01-05T02:07:36.483Z,47.94
2023-01-05T02:08:36.317Z,47.94
2023-01-05T02:09:36.207Z,48.55
2023-01-05T02:10:36.147Z,48.35
2023-01-05T02:11:36.878Z,47.85
2023-01-05T02:12:35.874Z,48.35
2023-01-05T02:13:35.867Z,48.05
2023-01-05T02:14:35.867Z,48.25
2023-01-05T02:15:35.833Z,47.94
2023-01-05T02:16:35.898Z,48.05
2023-01-05T02:17:35.817Z,48.35
2023-01-05T02:18:35.801Z,48.35
2023-01-05T02:19:35.793Z,48.25
2023-01-05T02:20:35.784Z,48.14
2023-01-05T02:21:35.766Z,47.34
2023-01-05T02:22:35.755Z,48.14
2023-01-05T02:23:35.743Z,48.14
2023-01-05T02:24:35.731Z,47.74
2023-01-05T02:25:35.736Z,47.22
2023-01-05T02:26:35.728Z,47.34
2023-01-05T02:27:35.706Z,47.85
2023-01-05T02:28:35.685Z,47.92
2023-01-05T02:29:35.676Z,47.74
2023-01-05T02:30:35.726Z,47.34
2023-01-05T02:31:35.659Z,47.32
2023-01-05T02:32:35.641Z,47.22
2023-01-05T02:33:35.630Z,47.02
2023-01-05T02:34:35.619Z,47.42
2023-01-05T02:35:35.627Z,47.32
2023-01-05T02:36:35.603Z,47.22
2023-01-05T02:37:35.618Z,47.42
2023-01-05T02:38:35.598Z,47.42
2023-01-05T02:39:35.566Z,47.22
2023-01-05T02:40:35.565Z,47.42
2023-01-05T02:41:35.568Z,47.44
2023-01-05T02:42:35.551Z,47.42
2023-01-05T02:43:35.543Z,47.42
2023-01-05T02:44:35.514Z,47.32
2023-01-05T02:45:35.494Z,47.44
2023-01-05T02:46:35.541Z,47.52
2023-01-05T02:47:35.472Z,47.42
2023-01-05T02:48:35.462Z,47.42
2023-01-05T02:49:35.490Z,47.54
2023-01-05T02:50:35.437Z,47.44
2023-01-05T02:51:35.428Z,47.32
2023-01-05T02:52:35.423Z,47.62
2023-01-05T02:53:35.411Z,47.52
2023-01-05T02:54:35.391Z,47.44
2023-01-05T02:55:35.388Z,47.62
2023-01-05T02:56:35.388Z,47.52
2023-01-05T02:57:35.389Z,47.62
2023-01-05T02:58:35.359Z,47.72
2023-01-05T02:59:35.348Z,48.02
2023-01-05T03:00:35.330Z,48.12
2023-01-05T03:01:35.476Z,47.74
2023-01-05T03:02:35.542Z,48.02
2023-01-05T03:03:35.439Z,48.12
2023-01-05T03:04:35.282Z,47.92
2023-01-05T03:05:35.271Z,47.85
2023-01-05T03:06:35.262Z,47.74
2023-01-05T03:07:35.255Z,47.85
2023-01-05T03:08:35.236Z,48.22
2023-01-05T03:09:35.225Z,48.25
2023-01-05T03:10:35.214Z,48.02
2023-01-05T03:11:35.205Z,48.12
2023-01-05T03:12:35.205Z,47.82
2023-01-05T03:13:35.210Z,48.14
2023-01-05T03:14:35.171Z,47.72
2023-01-05T03:15:35.406Z,47.82
2023-01-05T03:16:35.161Z,47.72
2023-01-05T03:17:35.136Z,47.62
2023-01-05T03:18:35.151Z,47.72
2023-01-05T03:19:35.119Z,47.72
2023-01-05T03:20:35.116Z,47.62
2023-01-05T03:21:35.092Z,47.62
2023-01-05T03:22:35.080Z,47.62
2023-01-05T03:23:35.069Z,47.62
2023-01-05T03:24:35.061Z,48.02
2023-01-05T03:25:35.052Z,47.92
2023-01-05T03:26:35.035Z,46.92
2023-01-05T03:27:35.023Z,47.82
2023-01-05T03:28:35.014Z,47.92
2023-01-05T03:29:35.005Z,47.22
2023-01-05T03:30:35.069Z,46.92
2023-01-05T03:31:34.985Z,47.02
2023-01-05T03:32:35.259Z,47.22
2023-01-05T03:33:34.957Z,47.02
2023-01-05T03:34:34.988Z,47.02
2023-01-05T03:35:34.944Z,47.22
2023-01-05T03:36:34.920Z,47.02
2023-01-05T03:37:34.922Z,47.22
2023-01-05T03:38:34.905Z,47.72
2023-01-05T03:39:34.897Z,47.22
2023-01-05T03:40:34.877Z,47.22
2023-01-05T03:41:34.867Z,47.12
2023-01-05T03:42:34.856Z,47.22
2023-01-05T03:43:34.849Z,47.22
2023-01-05T03:44:34.835Z,47.22
2023-01-05T03:45:34.828Z,47.22
2023-01-05T03:46:34.869Z,47.32
2023-01-05T03:47:34.807Z,47.32
2023-01-05T03:48:34.788Z,47.32
2023-01-05T03:49:34.811Z,47.32
2023-01-05T03:50:34.781Z,47.32
2023-01-05T03:51:41.234Z,47.32
2023-01-05T03:52:35.741Z,47.02
2023-01-05T03:53:34.734Z,47.22
2023-01-05T03:54:34.726Z,47.12
2023-01-05T03:55:34.730Z,47.12
2023-01-05T03:56:34.697Z,47.12
2023-01-05T03:57:34.688Z,47.22
2023-01-05T03:58:34.682Z,47.52
2023-01-05T03:59:34.663Z,47.12
2023-01-05T04:00:34.659Z,47.32
2023-01-05T04:01:34.748Z,47.82
2023-01-05T04:02:34.851Z,47.22
2023-01-05T04:03:34.681Z,47.22
2023-01-05T04:04:34.611Z,47.22
2023-01-05T04:05:34.597Z,47.22
2023-01-05T04:06:34.602Z,47.42
2023-01-05T04:07:34.583Z,47.42
2023-01-05T04:08:34.565Z,47.32
2023-01-05T04:09:34.556Z,47.32
2023-01-05T04:10:34.540Z,47.22
2023-01-05T04:11:34.529Z,47.32
2023-01-05T04:12:34.518Z,47.42
2023-01-05T04:13:34.512Z,47.12
2023-01-05T04:14:34.495Z,47.32
2023-01-05T04:15:34.495Z,47.32
2023-01-05T04:16:34.521Z,47.32
2023-01-05T04:17:34.467Z,47.12
2023-01-05T04:18:34.450Z,47.32
2023-01-05T04:19:34.456Z,47.22
2023-01-05T04:20:34.433Z,47.32
2023-01-05T04:21:34.416Z,47.32
2023-01-05T04:22:34.434Z,47.12
2023-01-05T04:23:34.393Z,47.02
2023-01-05T04:24:34.382Z,47.32
2023-01-05T04:25:34.403Z,47.02
2023-01-05T04:26:34.365Z,47.22
2023-01-05T04:27:34.348Z,47.42
2023-01-05T04:28:34.340Z,47.42
2023-01-05T04:29:34.328Z,47.52
2023-01-05T04:30:34.315Z,47.22
2023-01-05T04:31:34.372Z,47.02
2023-01-05T04:32:34.306Z,47.02
2023-01-05T04:33:34.281Z,47.02
2023-01-05T04:34:34.270Z,47.22
2023-01-05T04:35:34.256Z,47.32
2023-01-05T04:36:34.263Z,47.52
2023-01-05T04:37:34.261Z,47.42
2023-01-05T04:38:34.250Z,47.42
2023-01-05T04:39:34.221Z,47.62
2023-01-05T04:40:34.205Z,47.52
2023-01-05T04:41:34.193Z,47.62
2023-01-05T04:42:34.189Z,47.42
2023-01-05T04:43:34.175Z,47.52
2023-01-05T04:44:34.162Z,47.22
2023-01-05T04:45:34.157Z,47.52
2023-01-05T04:46:34.164Z,47.42
2023-01-05T04:47:34.144Z,47.82
2023-01-05T04:48:34.112Z,47.82
2023-01-05T04:49:34.107Z,47.72
2023-01-05T04:50:34.090Z,47.72
2023-01-05T04:51:34.080Z,47.72
2023-01-05T04:52:34.072Z,46.51
2023-01-05T04:53:34.067Z,46.51
2023-01-05T04:54:34.071Z,47.72
2023-01-05T04:55:34.062Z,47.72
2023-01-05T04:56:34.024Z,47.62
2023-01-05T04:57:34.012Z,46.81
2023-01-05T04:58:34.002Z,47.52
2023-01-05T04:59:33.993Z,47.92
2023-01-05T05:00:33.987Z,47.80
2023-01-05T05:01:34.153Z,47.60
2023-01-05T05:02:34.073Z,47.39
2023-01-05T05:03:33.993Z,47.00
2023-01-05T05:04:33.934Z,47.22
2023-01-05T05:05:33.921Z,47.39
2023-01-05T05:06:33.918Z,47.30
2023-01-05T05:07:33.916Z,47.19
2023-01-05T05:08:33.893Z,47.19
2023-01-05T05:09:33.900Z,47.39
2023-01-05T05:10:33.882Z,47.00
2023-01-05T05:11:33.858Z,47.19
2023-01-05T05:12:33.848Z,47.80
2023-01-05T05:13:33.853Z,47.52
2023-01-05T05:14:33.822Z,47.90
2023-01-05T05:15:33.811Z,47.09
2023-01-05T05:16:33.804Z,46.80
2023-01-05T05:17:33.790Z,47.70
2023-01-05T05:18:33.790Z,46.89
2023-01-05T05:19:33.771Z,46.89
2023-01-05T05:20:33.754Z,46.69
2023-01-05T05:21:33.743Z,47.60
2023-01-05T05:22:33.732Z,47.30
2023-01-05T05:23:33.717Z,47.39
2023-01-05T05:24:33.713Z,47.30
2023-01-05T05:25:33.708Z,47.70
2023-01-05T05:26:33.711Z,46.59
2023-01-05T05:27:33.675Z,46.80
2023-01-05T05:28:33.670Z,46.89
2023-01-05T05:29:33.655Z,47.00
2023-01-05T05:30:33.641Z,47.80
2023-01-05T05:31:33.657Z,46.89
2023-01-05T05:32:35.171Z,46.80
2023-01-05T05:33:33.618Z,47.39
2023-01-05T05:34:33.600Z,46.59
2023-01-05T05:35:33.591Z,47.39
2023-01-05T05:36:33.574Z,46.80
2023-01-05T05:37:33.584Z,46.69
2023-01-05T05:38:33.552Z,47.19
2023-01-05T05:39:33.564Z,47.90
2023-01-05T05:40:33.529Z,47.80
2023-01-05T05:41:33.528Z,47.80
2023-01-05T05:42:33.532Z,47.90
2023-01-05T05:43:33.504Z,46.80
2023-01-05T05:44:33.497Z,47.30
2023-01-05T05:45:33.473Z,47.70
2023-01-05T05:46:33.540Z,47.60
2023-01-05T05:47:33.455Z,47.30
2023-01-05T05:48:33.464Z,47.39
2023-01-05T05:49:33.449Z,47.90
2023-01-05T05:50:33.420Z,47.80
2023-01-05T05:51:33.414Z,47.00
2023-01-05T05:52:33.393Z,46.59
2023-01-05T05:53:33.383Z,47.60
2023-01-05T05:54:33.375Z,46.59
2023-01-05T05:55:33.374Z,47.30
2023-01-05T05:56:33.360Z,47.50
2023-01-05T05:57:33.345Z,46.89
2023-01-05T05:58:33.352Z,46.69
2023-01-05T05:59:33.317Z,46.80
2023-01-05T06:00:33.321Z,47.90
2023-01-05T06:01:33.429Z,47.19
2023-01-05T06:02:33.380Z,47.30
2023-01-05T06:03:33.345Z,46.80
2023-01-05T06:04:33.264Z,46.80
2023-01-05T06:05:33.267Z,47.60
2023-01-05T06:06:33.243Z,47.60
2023-01-05T06:07:33.269Z,46.59
2023-01-05T06:08:33.225Z,46.89
2023-01-05T06:09:33.203Z,47.39
2023-01-05T06:10:33.197Z,47.39
2023-01-05T06:11:33.181Z,47.90
2023-01-05T06:12:33.180Z,47.02
2023-01-05T06:13:33.167Z,46.59
2023-01-05T06:14:33.164Z,47.30
2023-01-05T06:15:33.138Z,47.60
2023-01-05T06:16:33.157Z,47.09
2023-01-05T06:17:33.115Z,46.89
2023-01-05T06:18:33.145Z,47.30
2023-01-05T06:19:33.109Z,46.80
2023-01-05T06:20:33.080Z,47.30
2023-01-05T06:21:33.077Z,47.60
2023-01-05T06:22:33.068Z,47.70
2023-01-05T06:23:33.047Z,47.90
2023-01-05T06:24:33.034Z,47.50
2023-01-05T06:25:33.047Z,47.60
2023-01-05T06:26:33.034Z,47.39
2023-01-05T06:27:33.004Z,46.80
2023-01-05T06:28:32.988Z,47.60
2023-01-05T06:29:33.014Z,46.80
2023-01-05T06:30:32.989Z,47.19
2023-01-05T06:31:33.046Z,46.80
2023-01-05T06:32:32.943Z,47.30
2023-01-05T06:33:32.933Z,47.50
2023-01-05T06:34:32.921Z,47.19
2023-01-05T06:35:32.910Z,47.19
2023-01-05T06:36:32.900Z,46.80
2023-01-05T06:37:32.897Z,47.70
2023-01-05T06:38:32.878Z,47.39
2023-01-05T06:39:32.883Z,47.60
2023-01-05T06:40:32.858Z,47.60
2023-01-05T06:41:32.844Z,47.42
2023-01-05T06:42:32.834Z,47.50
2023-01-05T06:43:32.848Z,47.30
2023-01-05T06:44:32.808Z,47.50
2023-01-05T06:45:32.863Z,47.50
2023-01-05T06:46:32.837Z,47.39
2023-01-05T06:47:32.780Z,47.19
2023-01-05T06:48:32.791Z,46.80
2023-01-05T06:49:32.789Z,47.50
2023-01-05T06:50:32.744Z,47.50
2023-01-05T06:51:32.736Z,47.50
2023-01-05T06:52:32.718Z,47.30
2023-01-05T06:53:32.709Z,47.39
2023-01-05T06:54:32.697Z,47.39
2023-01-05T06:55:32.705Z,47.50
2023-01-05T06:56:32.673Z,47.50
2023-01-05T06:57:32.665Z,47.19
2023-01-05T06:58:32.653Z,47.50
2023-01-05T06:59:32.640Z,47.09
2023-01-05T07:00:32.762Z,47.30
2023-01-05T07:01:32.793Z,47.30
2023-01-05T07:02:32.623Z,47.50
2023-01-05T07:03:32.630Z,47.39
2023-01-05T07:04:32.587Z,47.30
2023-01-05T07:05:32.573Z,47.00
2023-01-05T07:06:32.562Z,47.50
2023-01-05T07:07:32.583Z,47.19
2023-01-05T07:08:32.543Z,47.30
2023-01-05T07:09:32.527Z,47.60
2023-01-05T07:10:32.516Z,47.50
2023-01-05T07:11:32.521Z,47.30
2023-01-05T07:12:32.500Z,47.00
2023-01-05T07:13:32.487Z,47.00
2023-01-05T07:14:32.473Z,47.09
2023-01-05T07:15:32.459Z,47.30
2023-01-05T07:16:32.462Z,47.09
2023-01-05T07:17:32.451Z,47.09
2023-01-05T07:18:32.453Z,47.30
2023-01-05T07:19:32.422Z,46.89
2023-01-05T07:20:32.413Z,47.30
2023-01-05T07:21:32.394Z,47.00
2023-01-05T07:22:32.387Z,47.09
2023-01-05T07:23:32.371Z,47.00
2023-01-05T07:24:32.364Z,47.00
2023-01-05T07:25:32.352Z,47.00
2023-01-05T07:26:32.335Z,47.00
2023-01-05T07:27:32.325Z,47.19
2023-01-05T07:28:32.318Z,47.09
2023-01-05T07:29:32.301Z,47.60
2023-01-05T07:30:32.306Z,47.09
2023-01-05T07:31:32.348Z,46.80
2023-01-05T07:32:32.272Z,47.19
2023-01-05T07:33:37.498Z,47.09
2023-01-05T07:34:33.327Z,47.00
2023-01-05T07:35:32.236Z,47.09
2023-01-05T07:36:32.226Z,47.30
2023-01-05T07:37:32.219Z,47.09
2023-01-05T07:38:32.214Z,47.09
2023-01-05T07:39:32.200Z,47.00
2023-01-05T07:40:32.179Z,47.09
2023-01-05T07:41:32.170Z,47.00
2023-01-05T07:42:32.155Z,47.09
2023-01-05T07:43:32.159Z,47.09
2023-01-05T07:44:32.132Z,47.19
2023-01-05T07:45:32.179Z,47.09
2023-01-05T07:46:32.110Z,47.09
2023-01-05T07:47:32.097Z,47.00
2023-01-05T07:48:32.103Z,46.89
2023-01-05T07:49:32.083Z,47.09
2023-01-05T07:50:32.092Z,47.09
2023-01-05T07:51:32.060Z,47.09
2023-01-05T07:52:32.044Z,47.19
2023-01-05T07:53:32.046Z,47.19
2023-01-05T07:54:32.021Z,47.09
2023-01-05T07:55:32.016Z,47.19
2023-01-05T07:56:32.005Z,47.00
2023-01-05T07:57:31.987Z,47.09
2023-01-05T07:58:31.975Z,46.80
2023-01-05T07:59:31.978Z,47.00
2023-01-05T08:00:31.954Z,47.19
2023-01-05T08:01:32.106Z,46.69
2023-01-05T08:02:35.901Z,46.69
2023-01-05T08:03:31.924Z,47.30
2023-01-05T08:04:31.972Z,47.00
2023-01-05T08:05:31.900Z,46.80
2023-01-05T08:06:31.902Z,47.30
2023-01-05T08:07:31.900Z,46.80
2023-01-05T08:08:31.871Z,46.69
2023-01-05T08:09:31.858Z,46.69
2023-01-05T08:10:31.862Z,46.80
2023-01-05T08:11:31.833Z,46.80
2023-01-05T08:12:31.822Z,46.89
2023-01-05T08:13:31.907Z,46.89
2023-01-05T08:14:31.796Z,46.59
2023-01-05T08:15:31.785Z,46.80
2023-01-05T08:16:31.961Z,47.50
2023-01-05T08:17:31.763Z,46.80
2023-01-05T08:18:31.754Z,46.27
2023-01-05T08:19:31.746Z,46.59
2023-01-05T08:20:31.738Z,47.39
2023-01-05T08:21:31.719Z,46.49
2023-01-05T08:22:31.723Z,46.19
2023-01-05T08:23:31.699Z,46.69
2023-01-05T08:24:31.693Z,46.39
2023-01-05T08:25:31.703Z,46.19
2023-01-05T08:26:31.730Z,46.09
2023-01-05T08:27:31.650Z,46.39
2023-01-05T08:28:35.530Z,46.39
2023-01-05T08:29:31.631Z,46.29
2023-01-05T08:30:31.629Z,46.87
2023-01-05T08:31:31.721Z,46.29
2023-01-05T08:32:31.597Z,46.89
2023-01-05T08:33:31.585Z,46.80
2023-01-05T08:34:34.849Z,46.37
2023-01-05T08:35:31.559Z,46.39
2023-01-05T08:36:31.550Z,47.19
2023-01-05T08:37:31.547Z,47.07
2023-01-05T08:38:31.547Z,46.57
2023-01-05T08:39:31.544Z,46.67
2023-01-05T08:40:31.507Z,46.77
2023-01-05T08:41:31.494Z,46.57
2023-01-05T08:42:31.483Z,46.57
2023-01-05T08:43:31.477Z,46.57
2023-01-05T08:44:31.464Z,47.27
2023-01-05T08:45:31.537Z,46.87
2023-01-05T08:46:31.468Z,46.47
2023-01-05T08:47:31.432Z,46.47
2023-01-05T08:48:31.415Z,46.47
2023-01-05T08:49:31.454Z,46.07
2023-01-05T08:50:31.393Z,46.17
2023-01-05T08:51:31.397Z,46.57
2023-01-05T08:52:31.369Z,46.15
2023-01-05T08:53:31.366Z,46.27
2023-01-05T08:54:31.385Z,46.55
2023-01-05T08:55:31.355Z,46.57
2023-01-05T08:56:36.619Z,46.57
2023-01-05T08:57:32.321Z,46.55
2023-01-05T08:58:31.317Z,46.87
2023-01-05T08:59:31.298Z,46.25
2023-01-05T09:00:31.282Z,46.27
2023-01-05T09:01:31.404Z,46.47
2023-01-05T09:02:31.516Z,46.67
2023-01-05T09:03:31.290Z,46.04
2023-01-05T09:04:31.232Z,46.35
2023-01-05T09:05:31.224Z,46.25
2023-01-05T09:06:31.213Z,46.65
2023-01-05T09:07:31.207Z,45.95
2023-01-05T09:08:31.191Z,45.02
2023-01-05T09:09:31.178Z,45.02
2023-01-05T09:10:31.189Z,44.90
2023-01-05T09:11:31.157Z,45.40
2023-01-05T09:12:33.396Z,44.90
2023-01-05T09:13:31.157Z,44.70
2023-01-05T09:14:31.123Z,45.10
2023-01-05T09:15:31.129Z,44.28
2023-01-05T09:17:32.094Z,43.98
2023-01-05T09:18:31.079Z,43.98
2023-01-05T09:19:31.072Z,44.16
2023-01-05T09:20:36.122Z,44.06
2023-01-05T09:21:32.042Z,43.66
2023-01-05T09:22:31.033Z,43.46
2023-01-05T09:23:31.022Z,43.46
2023-01-05T09:24:31.017Z,43.74
2023-01-05T09:25:31.008Z,43.46
2023-01-05T09:26:31.034Z,43.26
2023-01-05T09:27:30.979Z,43.16
2023-01-05T09:28:30.982Z,43.16
2023-01-05T09:29:30.955Z,43.55
2023-01-05T09:30:36.334Z,43.35
2023-01-05T09:31:32.037Z,43.26
2023-01-05T09:32:30.925Z,43.66
2023-01-05T09:33:30.915Z,43.63
2023-01-05T09:34:30.905Z,43.55
2023-01-05T09:35:30.890Z,43.55
2023-01-05T09:36:30.877Z,43.55
2023-01-05T09:37:30.872Z,42.93
2023-01-05T09:38:30.855Z,43.13
2023-01-05T09:39:30.847Z,43.04
2023-01-05T09:40:30.834Z,43.54
2023-01-05T09:41:30.837Z,43.54
2023-01-05T09:42:30.928Z,43.16
2023-01-05T09:43:30.812Z,43.54
2023-01-05T09:44:30.823Z,43.54
2023-01-05T09:45:30.778Z,43.43
2023-01-05T09:46:30.791Z,42.82
2023-01-05T09:47:30.757Z,42.71
2023-01-05T09:48:30.743Z,42.21
2023-01-05T09:49:30.753Z,42.21
2023-01-05T09:50:30.740Z,42.69
2023-01-05T09:51:30.711Z,42.11
2023-01-05T09:52:37.656Z,42.49
2023-01-05T09:53:31.689Z,42.19
2023-01-05T09:54:30.679Z,42.49
2023-01-05T09:55:30.677Z,42.61
2023-01-05T09:57:31.643Z,43.33
2023-01-05T09:58:30.798Z,43.24
2023-01-05T09:59:30.620Z,43.43
2023-01-05T10:00:30.611Z,43.54
2023-01-05T10:01:30.648Z,43.16
2023-01-05T10:02:30.591Z,42.96
2023-01-05T10:04:02.597Z,43.35
2023-01-05T10:04:31.723Z,43.66
2023-01-05T10:05:30.650Z,43.55
2023-01-05T10:06:30.546Z,43.55
2023-01-05T10:07:30.553Z,43.66
2023-01-05T10:08:30.527Z,44.16
2023-01-05T10:09:30.514Z,44.46
2023-01-05T10:10:31.361Z,44.48
2023-01-05T10:11:30.749Z,44.48
2023-01-05T10:12:30.814Z,44.18
2023-01-05T10:13:32.193Z,44.08
2023-01-05T10:14:31.064Z,44.08
2023-01-05T10:15:30.910Z,44.38
2023-01-05T10:16:31.102Z,44.48
2023-01-05T10:17:40.975Z,44.88
2023-01-05T10:18:33.346Z,44.48
2023-01-05T10:19:31.761Z,44.48
2023-01-05T10:20:30.773Z,44.68
2023-01-05T10:21:31.545Z,45.08
2023-01-05T10:22:35.156Z,44.50
2023-01-05T10:23:32.769Z,45.20
2023-01-05T10:24:32.555Z,44.80
2023-01-05T10:25:30.789Z,44.90
2023-01-05T10:26:51.041Z,44.48
2023-01-05T10:27:31.872Z,45.00
2023-01-05T10:28:31.023Z,45.00
2023-01-05T10:29:31.603Z,44.70
2023-01-05T10:30:31.261Z,44.80
2023-01-05T10:31:31.033Z,44.70
2023-01-05T10:32:30.810Z,44.80
2023-01-05T10:33:39.591Z,44.70
2023-01-05T10:34:31.741Z,44.70
2023-01-05T10:35:59.535Z,44.60
2023-01-05T10:37:06.774Z,44.80
2023-01-05T10:37:31.914Z,44.80
2023-01-05T10:38:31.382Z,44.60
2023-01-05T10:39:30.795Z,44.60
2023-01-05T10:40:30.723Z,44.60
2023-01-05T10:41:30.557Z,44.70
2023-01-05T10:42:31.817Z,45.00
2023-01-05T10:43:31.628Z,44.60
2023-01-05T10:44:30.869Z,44.80
2023-01-05T10:45:30.736Z,44.70
2023-01-05T10:46:35.416Z,44.70
2023-01-05T10:47:31.897Z,44.80
2023-01-05T10:48:31.356Z,44.80
2023-01-05T10:49:30.662Z,44.70
2023-01-05T10:50:30.513Z,45.00
2023-01-05T10:51:30.535Z,44.60
2023-01-05T10:52:30.788Z,44.60
2023-01-05T10:53:30.270Z,44.60
2023-01-05T10:54:31.899Z,44.70
2023-01-05T10:55:30.630Z,45.00
2023-01-05T10:56:31.389Z,44.80
2023-01-05T10:57:34.713Z,44.70
2023-01-05T10:58:31.707Z,44.60
2023-01-05T10:59:31.466Z,45.00
2023-01-05T11:00:30.989Z,45.00
2023-01-05T11:01:31.602Z,45.00
2023-01-05T11:02:31.356Z,44.60
2023-01-05T11:03:57.280Z,44.60
2023-01-05T11:04:35.479Z,45.10
2023-01-05T11:05:31.829Z,44.70
2023-01-05T11:06:31.303Z,44.70
2023-01-05T11:07:30.321Z,44.60
2023-01-05T11:08:30.171Z,44.80
2023-01-05T11:09:30.211Z,44.82
2023-01-05T11:10:31.169Z,45.02
2023-01-05T11:11:30.587Z,45.02
2023-01-05T11:12:30.198Z,44.92
2023-01-05T11:13:30.147Z,45.02
2023-01-05T11:14:30.052Z,44.82
2023-01-05T11:15:30.234Z,45.02
2023-01-05T11:16:30.130Z,44.92
2023-01-05T11:17:31.465Z,44.92
2023-01-05T11:18:30.205Z,45.02
2023-01-05T11:19:30.044Z,45.12
2023-01-05T11:20:30.780Z,45.12
2023-01-05T11:21:29.709Z,44.92
2023-01-05T11:22:29.707Z,45.12
2023-01-05T11:23:29.705Z,45.00
2023-01-05T11:24:29.690Z,45.02
2023-01-05T11:25:29.662Z,45.02
2023-01-05T11:26:29.654Z,45.22
2023-01-05T11:27:29.639Z,44.92
2023-01-05T11:28:29.628Z,44.92
2023-01-05T11:29:29.627Z,45.12
2023-01-05T11:30:29.610Z,45.12
2023-01-05T11:31:29.652Z,45.02
2023-01-05T11:32:29.582Z,45.53
2023-01-05T11:33:29.573Z,45.53
2023-01-05T11:34:30.095Z,45.62
2023-01-05T11:35:30.071Z,45.12
2023-01-05T11:36:30.408Z,45.42
2023-01-05T11:37:29.535Z,45.42
2023-01-05T11:38:29.516Z,45.53
2023-01-05T11:39:29.513Z,45.02
2023-01-05T11:40:29.494Z,45.42
2023-01-05T11:41:29.491Z,45.32
2023-01-05T11:42:29.471Z,45.12
2023-01-05T11:43:36.427Z,45.12
2023-01-05T11:44:29.451Z,45.12
2023-01-05T11:45:29.436Z,45.22
2023-01-05T11:46:29.531Z,45.22
2023-01-05T11:47:29.424Z,45.22
2023-01-05T11:48:29.405Z,45.02
2023-01-05T11:49:29.391Z,45.22
2023-01-05T11:50:29.491Z,45.12
2023-01-05T11:51:29.370Z,45.02
2023-01-05T11:52:29.359Z,45.53
2023-01-05T11:53:29.351Z,45.12
2023-01-05T11:54:29.335Z,45.32
2023-01-05T11:55:29.326Z,45.32
2023-01-05T11:56:29.312Z,45.12
2023-01-05T11:57:29.304Z,45.22
2023-01-05T11:58:29.299Z,45.32
2023-01-05T11:59:29.290Z,45.12
2023-01-05T12:00:29.361Z,45.12
2023-01-05T12:01:29.411Z,45.12
2023-01-05T12:02:29.269Z,45.42
2023-01-05T12:03:29.273Z,45.12
2023-01-05T12:04:29.314Z,45.02
2023-01-05T12:05:29.660Z,44.82
2023-01-05T12:06:29.666Z,45.02
2023-01-05T12:07:29.455Z,44.92
2023-01-05T12:08:29.278Z,44.92
2023-01-05T12:09:34.323Z,45.02
2023-01-05T12:10:30.811Z,45.02
2023-01-05T12:11:29.312Z,45.12
2023-01-05T12:12:29.240Z,44.62
2023-01-05T12:13:29.329Z,45.02
2023-01-05T12:14:29.358Z,44.92
2023-01-05T12:15:29.543Z,44.92
2023-01-05T12:16:29.611Z,44.82
2023-01-05T12:17:29.231Z,44.62
2023-01-05T12:18:29.279Z,45.02
2023-01-05T12:19:29.470Z,44.80
2023-01-05T12:20:29.163Z,44.90
2023-01-05T12:21:29.380Z,44.90
2023-01-05T12:22:29.600Z,45.00
2023-01-05T12:23:29.157Z,44.50
2023-01-05T12:24:29.327Z,44.70
2023-01-05T12:25:29.391Z,44.50
2023-01-05T12:26:29.162Z,45.20
2023-01-05T12:27:29.128Z,44.70
2023-01-05T12:28:40.989Z,44.80
2023-01-05T12:34:30.420Z,44.70
2023-01-05T12:35:29.228Z,44.60
2023-01-05T12:36:29.087Z,44.50
2023-01-05T12:37:29.079Z,44.70
2023-01-05T12:38:29.256Z,44.50
2023-01-05T12:39:32.015Z,44.20
2023-01-05T12:40:28.949Z,44.50
2023-01-05T12:41:28.957Z,44.50
2023-01-05T12:42:29.677Z,44.50
2023-01-05T12:43:29.972Z,44.60
2023-01-05T12:44:29.493Z,44.50
2023-01-05T12:45:32.092Z,44.50
2023-01-05T12:46:28.791Z,44.30
2023-01-05T12:47:29.139Z,44.10
2023-01-05T12:48:28.975Z,44.80
2023-01-05T12:49:28.736Z,44.20
2023-01-05T12:50:29.231Z,44.50
2023-01-05T12:51:29.474Z,44.90
2023-01-05T12:52:28.682Z,44.80
2023-01-05T12:53:28.673Z,44.50
2023-01-05T12:54:28.795Z,45.00
2023-01-05T12:55:28.650Z,45.00
2023-01-05T12:56:28.647Z,45.40
2023-01-05T12:57:28.642Z,45.40
2023-01-05T12:58:28.618Z,44.80
2023-01-05T12:59:28.607Z,44.98